Time;durP1;ratioP1;P1;durP2;ratioP2;P2;SDS_P1;SDS_P2;PMS_P1;PMS_P2;Temp;Humidity;BMP_temperature;BMP_pressure;BME280_temperature;BME280_humidity;BME280_pressure;Samples;Min_cycle;Max_cycle;Signal;HPM_P1;HPM_P2
2023/05/15 00:01:32;;;;;;;4.73;4.63;;;12.00;99.90;;;;;;5096761;28;20484;-68
2023/05/15 00:03:59;;;;;;;4.70;4.60;;;12.00;99.90;;;;;;5093581;28;20505;-68
2023/05/15 00:06:27;;;;;;;5.00;4.90;;;12.00;99.90;;;;;;5102337;28;20822;-68
2023/05/15 00:08:55;;;;;;;5.10;5.00;;;11.90;99.90;;;;;;5095609;28;20468;-67
2023/05/15 00:11:22;;;;;;;4.67;4.57;;;11.90;99.90;;;;;;5097044;28;20468;-67
2023/05/15 00:13:49;;;;;;;5.43;5.23;;;11.90;99.90;;;;;;5098651;28;20462;-68
2023/05/15 00:16:16;;;;;;;4.83;4.73;;;11.90;99.90;;;;;;5105444;28;20484;-67
2023/05/15 00:18:45;;;;;;;4.97;4.87;;;11.90;99.90;;;;;;5099563;28;20462;-67
2023/05/15 00:21:12;;;;;;;5.20;5.10;;;11.90;99.90;;;;;;5098640;28;20832;-67
2023/05/15 00:23:40;;;;;;;6.00;5.80;;;11.90;99.90;;;;;;5100773;28;20533;-67
2023/05/15 00:26:07;;;;;;;4.80;4.70;;;12.00;99.90;;;;;;5101300;27;21316;-67
2023/05/15 00:28:34;;;;;;;4.87;4.77;;;12.10;99.90;;;;;;5099320;28;20457;-68
2023/05/15 00:31:01;;;;;;;5.20;5.10;;;12.10;99.90;;;;;;5099136;28;20465;-67
2023/05/15 00:33:28;;;;;;;5.00;4.90;;;12.00;99.90;;;;;;5100379;28;20458;-68
2023/05/15 00:35:57;;;;;;;5.33;5.20;;;11.80;99.90;;;;;;5101450;27;20472;-67
2023/05/15 00:38:24;;;;;;;5.43;5.30;;;11.80;99.90;;;;;;5103264;27;20472;-67
2023/05/15 00:40:51;;;;;;;5.30;5.20;;;11.70;99.90;;;;;;5101514;27;20947;-68
2023/05/15 00:43:19;;;;;;;5.87;5.67;;;11.70;99.90;;;;;;5095213;28;20450;-67
2023/05/15 00:45:47;;;;;;;6.40;6.20;;;11.80;99.90;;;;;;5105126;28;20510;-67
2023/05/15 00:48:15;;;;;;;5.70;5.50;;;11.80;99.90;;;;;;5093554;27;20482;-67
2023/05/15 00:50:42;;;;;;;5.87;5.67;;;11.90;99.90;;;;;;5098505;28;20780;-68
2023/05/15 00:53:11;;;;;;;5.90;5.70;;;11.80;99.90;;;;;;5102654;28;20655;-68
2023/05/15 00:55:39;;;;;;;5.50;5.30;;;11.90;99.90;;;;;;5104987;28;20453;-67
2023/05/15 00:58:06;;;;;;;5.53;5.33;;;11.80;99.90;;;;;;5104006;27;20465;-68
2023/05/15 01:00:33;;;;;;;5.53;5.40;;;11.70;99.90;;;;;;5101061;27;20501;-67
2023/05/15 01:03:01;;;;;;;5.73;5.53;;;11.70;99.90;;;;;;5101504;28;20956;-68
2023/05/15 01:05:30;;;;;;;6.00;5.80;;;11.60;99.90;;;;;;5098563;27;20596;-67
2023/05/15 01:08:06;;;;;;;6.10;5.90;;;11.50;99.90;;;;;;5108701;27;20466;-67
2023/05/15 01:10:37;;;;;;;6.40;6.20;;;11.60;99.90;;;;;;5098930;28;20457;-67
2023/05/15 01:13:06;;;;;;;6.00;5.80;;;11.60;99.90;;;;;;5097264;27;20520;-68
2023/05/15 01:15:34;;;;;;;5.97;5.77;;;11.50;99.90;;;;;;5106825;27;20569;-68
2023/05/15 01:18:02;;;;;;;6.27;6.07;;;11.50;99.90;;;;;;5107796;28;20449;-67
2023/05/15 01:20:33;;;;;;;6.60;6.40;;;11.50;99.90;;;;;;5101068;28;20487;-68
2023/05/15 01:23:11;;;;;;;7.33;6.93;;;11.60;99.90;;;;;;5100859;28;20461;-67
2023/05/15 01:26:18;;;;;;;7.17;6.77;;;11.50;99.90;;;;;;5108852;28;20783;-68
2023/05/15 01:28:51;;;;;;;5.83;5.63;;;11.40;99.90;;;;;;5098680;27;20835;-67
2023/05/15 01:31:22;;;;;;;8.37;7.93;;;11.40;99.90;;;;;;5105245;28;20469;-68
2023/05/15 01:33:54;;;;;;;6.00;5.80;;;11.50;99.90;;;;;;5095462;28;20462;-68
2023/05/15 01:36:28;;;;;;;6.00;5.80;;;11.50;99.90;;;;;;5097020;28;21008;-67
2023/05/15 01:38:58;;;;;;;7.10;6.80;;;11.50;99.90;;;;;;5103206;28;20925;-68
2023/05/15 01:41:29;;;;;;;6.20;6.00;;;11.40;99.90;;;;;;5097863;28;20868;-68
2023/05/15 01:44:04;;;;;;;6.20;6.00;;;11.40;99.90;;;;;;5103772;27;20553;-68
2023/05/15 01:46:34;;;;;;;5.10;5.00;;;11.30;99.90;;;;;;5101226;28;20458;-67
2023/05/15 01:49:02;;;;;;;7.87;7.37;;;11.30;99.90;;;;;;5097830;27;20995;-67
2023/05/15 01:51:31;;;;;;;7.80;7.13;;;11.20;99.90;;;;;;5094910;28;20500;-68
2023/05/15 01:54:00;;;;;;;7.90;7.60;;;11.20;99.90;;;;;;5109450;28;20469;-67
2023/05/15 01:56:28;;;;;;;10.43;8.50;;;11.20;99.90;;;;;;5103384;28;20680;-67
2023/05/15 01:58:58;;;;;;;5.97;5.77;;;11.20;99.90;;;;;;5109648;28;20457;-67
2023/05/15 02:01:29;;;;;;;6.07;5.77;;;11.20;99.90;;;;;;5099674;27;20811;-67
2023/05/15 02:03:56;;;;;;;5.77;5.57;;;11.30;99.90;;;;;;5098646;27;20902;-67
2023/05/15 02:06:25;;;;;;;4.83;4.70;;;11.40;99.90;;;;;;5109552;28;20453;-67
2023/05/15 02:08:53;;;;;;;6.90;6.47;;;11.60;99.90;;;;;;5095730;28;20530;-67
2023/05/15 02:11:20;;;;;;;6.10;5.30;;;11.70;99.90;;;;;;5100548;28;20469;-68
2023/05/15 02:13:47;;;;;;;4.70;4.60;;;11.80;99.90;;;;;;5091410;27;20524;-67
2023/05/15 02:16:15;;;;;;;4.67;4.50;;;11.80;99.90;;;;;;5097755;28;20511;-67
2023/05/15 02:18:43;;;;;;;8.70;6.20;;;11.90;99.90;;;;;;5104617;28;20462;-67
2023/05/15 02:21:10;;;;;;;8.13;7.43;;;12.00;99.90;;;;;;5103866;27;20788;-68
2023/05/15 02:23:39;;;;;;;5.60;5.33;;;12.10;99.90;;;;;;5100227;27;20465;-68
2023/05/15 02:26:20;;;;;;;8.00;7.30;;;12.20;99.90;;;;;;5089526;27;20584;-67
2023/05/15 02:28:52;;;;;;;14.10;11.80;;;12.20;99.90;;;;;;5101799;28;20998;-68
2023/05/15 02:31:27;;;;;;;11.43;9.67;;;12.30;99.90;;;;;;5094867;28;20949;-67
2023/05/15 02:34:06;;;;;;;21.27;6.33;;;12.30;99.90;;;;;;5105838;28;20482;-67
2023/05/15 02:36:40;;;;;;;14.30;10.37;;;12.40;99.90;;;;;;5101617;27;20465;-69
2023/05/15 02:39:08;;;;;;;10.20;8.80;;;12.40;99.90;;;;;;5100620;27;20469;-68
2023/05/15 02:41:36;;;;;;;5.93;5.43;;;12.40;99.90;;;;;;5105157;27;20461;-68
2023/05/15 02:44:05;;;;;;;26.00;12.50;;;12.40;99.90;;;;;;5102391;28;20464;-69
2023/05/15 02:46:33;;;;;;;13.53;10.73;;;12.40;99.90;;;;;;5100375;27;20469;-70
2023/05/15 02:49:02;;;;;;;12.07;10.87;;;12.40;99.90;;;;;;5106191;27;20576;-69
2023/05/15 02:51:30;;;;;;;6.93;6.30;;;12.40;99.90;;;;;;5094259;28;20878;-68
2023/05/15 02:54:00;;;;;;;14.13;10.73;;;12.30;99.90;;;;;;5102809;28;20480;-69
2023/05/15 02:56:27;;;;;;;13.43;11.00;;;12.40;99.90;;;;;;5096834;27;20557;-68
2023/05/15 02:58:54;;;;;;;7.37;6.67;;;12.30;99.90;;;;;;5104025;28;20462;-69
2023/05/15 03:01:22;;;;;;;7.97;7.37;;;12.30;99.90;;;;;;5103359;27;20469;-69
2023/05/15 03:03:50;;;;;;;10.97;8.67;;;12.40;99.90;;;;;;5107889;28;20457;-70
2023/05/15 03:06:19;;;;;;;16.60;11.10;;;12.30;99.90;;;;;;5097078;28;20608;-70
2023/05/15 03:08:46;;;;;;;11.97;9.47;;;12.40;99.90;;;;;;5098148;28;20462;-69
2023/05/15 03:11:14;;;;;;;10.97;8.87;;;12.30;99.90;;;;;;5098623;28;20541;-68
2023/05/15 03:13:41;;;;;;;15.10;8.33;;;12.20;99.90;;;;;;5103155;28;20461;-69
2023/05/15 03:16:08;;;;;;;16.00;10.60;;;12.20;99.90;;;;;;5108892;28;20495;-69
2023/05/15 03:18:35;;;;;;;9.07;7.87;;;12.20;99.90;;;;;;5102289;28;20461;-69
2023/05/15 03:21:03;;;;;;;4.73;4.43;;;12.10;99.90;;;;;;5099500;27;20478;-70
2023/05/15 03:23:32;;;;;;;10.33;8.60;;;12.20;99.90;;;;;;5105364;28;20509;-69
2023/05/15 03:26:00;;;;;;;4.50;4.20;;;12.10;99.90;;;;;;5097091;28;21082;-68
2023/05/15 03:28:27;;;;;;;9.80;6.70;;;12.10;99.90;;;;;;5100121;28;20487;-68
2023/05/15 03:30:54;;;;;;;6.13;5.83;;;12.00;99.90;;;;;;5103458;28;20582;-68
2023/05/15 03:33:21;;;;;;;8.50;7.70;;;12.00;99.90;;;;;;5103454;28;20505;-69
2023/05/15 03:35:50;;;;;;;5.70;5.37;;;12.00;99.90;;;;;;5104575;28;20466;-69
2023/05/15 03:38:17;;;;;;;5.03;4.73;;;11.90;99.90;;;;;;5095171;28;20465;-69
2023/05/15 03:40:46;;;;;;;4.00;3.80;;;11.70;99.90;;;;;;5107288;28;20461;-69
2023/05/15 03:43:13;;;;;;;3.67;3.57;;;11.70;99.90;;;;;;5101452;28;20465;-69
2023/05/15 03:45:40;;;;;;;5.43;4.70;;;11.70;99.90;;;;;;5095420;28;20482;-69
2023/05/15 03:48:07;;;;;;;4.00;3.90;;;11.60;99.90;;;;;;5102248;28;20542;-69
2023/05/15 03:50:34;;;;;;;4.33;4.23;;;11.50;99.90;;;;;;5100976;28;20495;-69
2023/05/15 03:53:01;;;;;;;3.70;3.60;;;11.30;99.90;;;;;;5098658;28;20457;-68
2023/05/15 03:55:28;;;;;;;4.30;4.20;;;11.30;99.90;;;;;;5101844;28;20573;-69
2023/05/15 03:57:57;;;;;;;4.77;4.67;;;11.20;99.90;;;;;;5097536;28;20515;-68
2023/05/15 04:00:25;;;;;;;4.73;4.63;;;11.10;99.90;;;;;;5103866;28;20476;-69
2023/05/15 04:02:53;;;;;;;4.80;4.70;;;11.00;99.90;;;;;;5103893;27;20462;-69
2023/05/15 04:05:21;;;;;;;4.60;4.50;;;10.90;99.90;;;;;;5112611;28;20541;-69
2023/05/15 04:07:48;;;;;;;5.30;5.10;;;10.90;99.90;;;;;;5102531;27;20468;-69
2023/05/15 04:10:14;;;;;;;5.37;5.17;;;10.90;99.90;;;;;;5111734;28;20830;-69
2023/05/15 04:12:42;;;;;;;5.47;5.27;;;10.90;99.90;;;;;;5098561;28;20452;-69
2023/05/15 04:15:18;;;;;;;10.43;7.20;;;10.90;99.90;;;;;;5106955;27;20464;-69
2023/05/15 04:17:46;;;;;;;6.50;6.30;;;10.90;99.90;;;;;;5107911;28;20971;-68
2023/05/15 04:20:14;;;;;;;6.10;5.87;;;11.00;99.90;;;;;;5099984;27;20486;-69
2023/05/15 04:22:42;;;;;;;6.07;5.87;;;11.10;99.90;;;;;;5109324;28;20958;-68
2023/05/15 04:25:10;;;;;;;6.03;5.83;;;11.00;99.90;;;;;;5103217;27;20481;-69
2023/05/15 04:27:37;;;;;;;5.90;5.70;;;11.00;99.90;;;;;;5103023;27;20455;-70
2023/05/15 04:30:05;;;;;;;6.67;6.47;;;11.00;99.90;;;;;;5108240;28;20464;-69
2023/05/15 04:32:33;;;;;;;7.40;6.87;;;11.00;99.90;;;;;;5110932;28;20453;-69
2023/05/15 04:35:00;;;;;;;5.80;5.60;;;11.10;99.90;;;;;;5108745;27;20964;-69
2023/05/15 04:37:27;;;;;;;8.27;7.83;;;11.10;99.90;;;;;;5107130;28;20474;-69
2023/05/15 04:39:54;;;;;;;9.10;8.50;;;11.20;99.90;;;;;;5103743;28;20457;-69
2023/05/15 04:42:21;;;;;;;7.00;6.50;;;11.20;99.90;;;;;;5103636;28;20517;-68
2023/05/15 04:44:48;;;;;;;5.80;5.60;;;11.20;99.90;;;;;;5109751;27;20936;-68
2023/05/15 04:47:15;;;;;;;10.53;8.40;;;11.30;99.90;;;;;;5104056;27;20468;-69
2023/05/15 04:49:44;;;;;;;7.70;6.93;;;11.40;99.90;;;;;;5107457;28;20464;-69
2023/05/15 04:52:11;;;;;;;7.40;6.73;;;11.40;99.90;;;;;;5110065;28;20460;-69
2023/05/15 04:54:38;;;;;;;26.83;15.43;;;11.40;99.90;;;;;;5110411;28;20506;-69
2023/05/15 04:57:06;;;;;;;10.80;9.70;;;11.40;99.90;;;;;;5104859;28;20473;-68
2023/05/15 04:59:33;;;;;;;12.17;10.90;;;11.30;99.90;;;;;;5101064;27;20457;-69
2023/05/15 05:02:00;;;;;;;25.73;16.80;;;11.30;99.90;;;;;;5103859;28;20449;-68
2023/05/15 05:04:27;;;;;;;8.37;6.53;;;11.40;99.90;;;;;;5106963;27;20486;-69
2023/05/15 05:06:56;;;;;;;12.50;11.33;;;11.30;99.90;;;;;;5101066;27;20853;-69
2023/05/15 05:09:23;;;;;;;5.80;5.20;;;11.40;99.90;;;;;;5106774;28;20457;-69
2023/05/15 05:11:50;;;;;;;14.37;10.07;;;11.50;99.90;;;;;;5107411;28;20472;-69
2023/05/15 05:14:17;;;;;;;17.87;12.17;;;11.60;99.90;;;;;;5094749;27;20454;-69
2023/05/15 05:16:45;;;;;;;12.33;10.33;;;11.50;99.90;;;;;;5099951;27;20986;-68
2023/05/15 05:19:12;;;;;;;31.63;15.03;;;11.50;99.90;;;;;;5106352;28;20518;-69
2023/05/15 05:21:39;;;;;;;6.03;4.57;;;11.50;99.90;;;;;;5096686;28;20469;-69
2023/05/15 05:24:08;;;;;;;10.40;8.50;;;11.50;99.90;;;;;;5101792;27;20465;-69
2023/05/15 05:26:35;;;;;;;15.20;10.27;;;11.70;99.90;;;;;;5104743;28;20859;-69
2023/05/15 05:29:02;;;;;;;7.03;6.53;;;11.80;99.90;;;;;;5098676;27;20855;-69
2023/05/15 05:31:29;;;;;;;6.13;5.63;;;11.60;99.90;;;;;;5104325;28;20460;-69
2023/05/15 05:33:56;;;;;;;6.70;5.50;;;11.70;99.90;;;;;;5100115;27;20465;-69
2023/05/15 05:36:22;;;;;;;16.70;10.97;;;11.80;99.90;;;;;;5106102;28;20505;-69
2023/05/15 05:38:49;;;;;;;14.43;10.67;;;11.70;99.90;;;;;;5100059;27;21190;-70
2023/05/15 05:41:18;;;;;;;11.60;7.60;;;11.80;99.90;;;;;;5100341;28;20548;-69
2023/05/15 05:43:45;;;;;;;11.07;9.63;;;11.90;99.90;;;;;;5101253;28;20510;-69
2023/05/15 05:46:13;;;;;;;7.70;6.93;;;11.90;99.90;;;;;;5100332;28;20565;-69
2023/05/15 05:48:39;;;;;;;12.77;9.97;;;12.00;99.90;;;;;;5105498;27;20944;-69
2023/05/15 05:51:06;;;;;;;22.63;7.40;;;12.10;99.90;;;;;;5104912;27;20463;-69
2023/05/15 05:53:33;;;;;;;10.57;8.77;;;12.30;99.90;;;;;;5106345;28;20805;-69
2023/05/15 05:56:00;;;;;;;9.53;7.83;;;12.30;99.90;;;;;;5103581;27;20462;-69
2023/05/15 05:58:29;;;;;;;6.27;5.97;;;12.30;99.90;;;;;;5098089;27;20465;-68
2023/05/15 06:00:56;;;;;;;6.10;5.50;;;12.40;99.90;;;;;;5100450;28;20971;-69
2023/05/15 06:03:23;;;;;;;9.30;8.37;;;12.50;99.90;;;;;;5107658;27;20946;-70
2023/05/15 06:05:51;;;;;;;6.20;5.70;;;12.60;99.90;;;;;;5103781;28;20850;-69
2023/05/15 06:08:18;;;;;;;20.73;7.37;;;12.70;99.90;;;;;;5100615;27;20549;-70
2023/05/15 06:10:45;;;;;;;8.10;7.50;;;12.80;99.90;;;;;;5098326;27;20497;-69
2023/05/15 06:13:13;;;;;;;8.57;8.10;;;12.80;99.90;;;;;;5100523;28;20465;-68
2023/05/15 06:15:41;;;;;;;10.93;10.17;;;12.90;99.90;;;;;;5095444;27;20505;-69
2023/05/15 06:18:08;;;;;;;14.80;13.03;;;12.90;99.90;;;;;;5105398;28;20449;-68
2023/05/15 06:20:35;;;;;;;15.73;13.80;;;12.80;99.90;;;;;;5100491;28;20482;-69
2023/05/15 06:23:02;;;;;;;18.07;15.50;;;12.90;99.90;;;;;;5098317;28;20469;-69
2023/05/15 06:25:29;;;;;;;11.33;9.33;;;12.90;99.90;;;;;;5108926;28;20941;-69
2023/05/15 06:27:56;;;;;;;10.50;9.90;;;13.00;99.90;;;;;;5099503;27;20465;-69
2023/05/15 06:30:23;;;;;;;10.10;9.40;;;13.00;99.90;;;;;;5101065;28;20944;-69
2023/05/15 06:32:52;;;;;;;25.03;17.53;;;12.90;99.90;;;;;;5105000;28;20461;-68
2023/05/15 06:35:22;;;;;;;15.47;14.10;;;12.80;99.90;;;;;;5106148;28;20794;-69
2023/05/15 06:37:50;;;;;;;17.73;15.47;;;12.70;99.90;;;;;;5101065;27;20465;-69
2023/05/15 06:40:19;;;;;;;19.17;13.40;;;12.70;99.90;;;;;;5101379;28;20876;-69
2023/05/15 06:42:46;;;;;;;18.77;15.33;;;12.90;99.90;;;;;;5107781;28;20888;-69
2023/05/15 06:45:12;;;;;;;17.50;16.03;;;12.80;99.90;;;;;;5106067;28;21002;-69
2023/05/15 06:47:39;;;;;;;17.23;15.57;;;13.00;99.90;;;;;;5094677;28;20539;-69
2023/05/15 06:50:10;;;;;;;20.23;18.03;;;12.90;99.90;;;;;;5082772;28;20458;-69
2023/05/15 06:52:37;;;;;;;17.27;15.57;;;13.10;99.90;;;;;;5088280;28;20882;-70
2023/05/15 06:55:04;;;;;;;18.00;16.10;;;13.20;99.90;;;;;;5081555;28;20526;-69
2023/05/15 06:57:33;;;;;;;21.00;14.90;;;13.40;99.90;;;;;;5082935;28;20471;-70
2023/05/15 06:59:59;;;;;;;13.67;12.87;;;13.60;99.90;;;;;;5086067;28;20497;-69
2023/05/15 07:02:26;;;;;;;15.13;14.03;;;13.50;99.90;;;;;;5081942;28;20831;-69
2023/05/15 07:04:53;;;;;;;20.57;17.90;;;13.30;99.90;;;;;;5086572;28;20499;-69
2023/05/15 07:07:22;;;;;;;18.63;16.97;;;13.20;99.90;;;;;;5088012;28;20498;-70
2023/05/15 07:09:49;;;;;;;18.23;11.20;;;13.40;99.90;;;;;;5084234;28;20507;-69
2023/05/15 07:12:16;;;;;;;27.10;18.27;;;13.80;99.90;;;;;;5082977;28;20462;-69
2023/05/15 07:14:43;;;;;;;21.10;17.43;;;14.00;99.90;;;;;;5082003;28;20455;-69
2023/05/15 07:17:10;;;;;;;13.57;12.83;;;13.90;99.90;;;;;;5081617;28;20480;-69
2023/05/15 07:19:37;;;;;;;15.40;14.30;;;13.80;99.90;;;;;;5082121;28;20497;-69
2023/05/15 07:22:04;;;;;;;15.03;13.53;;;13.80;99.90;;;;;;5084773;28;20462;-68
2023/05/15 07:24:33;;;;;;;16.33;14.33;;;13.80;99.90;;;;;;5082807;28;21085;-69
2023/05/15 07:27:00;;;;;;;17.53;15.97;;;13.70;99.90;;;;;;5086938;28;20884;-69
2023/05/15 07:29:26;;;;;;;20.80;19.40;;;14.00;99.90;;;;;;5082391;28;20454;-69
2023/05/15 07:31:54;;;;;;;12.60;11.90;;;14.00;99.90;;;;;;5078800;28;20454;-69
2023/05/15 07:34:20;;;;;;;17.20;15.57;;;14.30;99.90;;;;;;5080828;28;20957;-70
2023/05/15 07:36:47;;;;;;;20.43;18.83;;;14.30;99.90;;;;;;5085318;28;20472;-68
2023/05/15 07:39:14;;;;;;;30.07;24.57;;;14.30;99.90;;;;;;5083919;28;20535;-69
2023/05/15 07:41:45;;;;;;;19.87;17.90;;;14.30;99.90;;;;;;5074847;28;20528;-68
2023/05/15 07:44:12;;;;;;;18.83;17.37;;;14.40;99.90;;;;;;5085616;28;20534;-69
2023/05/15 07:46:39;;;;;;;21.23;19.43;;;14.40;99.90;;;;;;5079520;28;20486;-68
2023/05/15 07:49:06;;;;;;;20.40;18.70;;;14.40;99.90;;;;;;5077715;28;20473;-70
2023/05/15 07:51:34;;;;;;;18.60;17.17;;;14.40;99.90;;;;;;5083393;28;20507;-69
2023/05/15 07:54:02;;;;;;;23.53;21.30;;;14.20;99.90;;;;;;5086722;28;20984;-69
2023/05/15 07:56:29;;;;;;;20.63;18.63;;;14.30;99.90;;;;;;5081365;28;20458;-70
2023/05/15 07:58:57;;;;;;;23.63;21.30;;;14.30;99.90;;;;;;5084970;28;20515;-69
2023/05/15 08:01:24;;;;;;;21.77;19.77;;;14.30;99.90;;;;;;5084373;28;20453;-68
2023/05/15 08:03:51;;;;;;;19.80;18.07;;;14.30;99.90;;;;;;5078213;28;20551;-68
2023/05/15 08:06:18;;;;;;;20.17;18.30;;;14.30;99.90;;;;;;5083914;28;20486;-70
2023/05/15 08:08:45;;;;;;;22.73;20.63;;;14.40;99.90;;;;;;5080044;28;20458;-68
2023/05/15 08:11:12;;;;;;;18.17;16.70;;;14.40;99.90;;;;;;5076071;28;20500;-68
2023/05/15 08:13:39;;;;;;;18.30;16.87;;;14.50;99.90;;;;;;5084442;28;20458;-67
2023/05/15 08:16:08;;;;;;;19.03;17.30;;;14.70;99.90;;;;;;5082918;28;20979;-67
2023/05/15 08:18:35;;;;;;;17.77;16.57;;;14.80;99.90;;;;;;5077973;28;20481;-67
2023/05/15 08:21:02;;;;;;;22.33;20.43;;;15.10;99.90;;;;;;5082489;28;20495;-67
2023/05/15 08:23:29;;;;;;;24.13;22.13;;;15.50;99.90;;;;;;5081047;28;20523;-68
2023/05/15 08:25:55;;;;;;;24.57;22.27;;;15.70;99.90;;;;;;5075136;28;20485;-68
2023/05/15 08:28:23;;;;;;;17.77;16.67;;;15.60;99.90;;;;;;5073689;28;20460;-67
2023/05/15 08:30:50;;;;;;;22.33;20.43;;;16.00;99.90;;;;;;5086445;28;20557;-67
2023/05/15 08:33:19;;;;;;;19.83;18.63;;;16.20;99.90;;;;;;5084006;28;20464;-67
2023/05/15 08:35:45;;;;;;;21.43;19.83;;;16.50;99.90;;;;;;5078309;28;20459;-67
2023/05/15 08:38:12;;;;;;;18.10;16.90;;;16.90;99.90;;;;;;5080345;28;20990;-67
2023/05/15 08:40:41;;;;;;;20.57;19.10;;;17.50;99.90;;;;;;5076853;28;20968;-68
2023/05/15 08:43:14;;;;;;;24.13;22.03;;;17.90;99.90;;;;;;5084837;28;20843;-68
2023/05/15 08:45:41;;;;;;;21.07;19.23;;;18.10;99.90;;;;;;5084501;28;20829;-67
2023/05/15 08:48:11;;;;;;;21.13;19.53;;;18.10;99.90;;;;;;5084777;28;20489;-66
2023/05/15 08:50:42;;;;;;;20.13;18.73;;;18.40;99.90;;;;;;5089526;28;20470;-68
2023/05/15 08:53:10;;;;;;;22.90;21.00;;;18.60;99.90;;;;;;5087733;28;20464;-66
2023/05/15 08:55:37;;;;;;;18.73;17.43;;;19.00;99.90;;;;;;5080397;28;20834;-66
2023/05/15 08:58:04;;;;;;;18.40;17.40;;;19.20;99.90;;;;;;5086143;28;20457;-65
2023/05/15 09:00:31;;;;;;;18.53;17.43;;;18.70;99.90;;;;;;5084459;28;20761;-66
2023/05/15 09:03:00;;;;;;;18.13;17.07;;;18.70;99.90;;;;;;5085277;28;20502;-66
2023/05/15 09:05:27;;;;;;;22.37;20.60;;;19.20;99.90;;;;;;5081575;28;20956;-66
2023/05/15 09:07:58;;;;;;;22.47;20.63;;;19.00;99.90;;;;;;5079489;28;20555;-65
2023/05/15 09:10:25;;;;;;;23.20;21.27;;;18.80;99.90;;;;;;5085884;28;20543;-66
2023/05/15 09:12:53;;;;;;;20.07;18.87;;;19.20;99.90;;;;;;5087223;28;20990;-66
2023/05/15 09:15:23;;;;;;;21.10;19.47;;;19.30;99.90;;;;;;5089211;28;20553;-66
2023/05/15 09:17:50;;;;;;;19.03;18.03;;;19.30;99.90;;;;;;5082507;28;20545;-65
2023/05/15 09:20:28;;;;;;;23.03;20.87;;;19.70;99.90;;;;;;5086577;28;21015;-66
2023/05/15 09:22:56;;;;;;;17.83;16.93;;;19.40;99.90;;;;;;5083075;28;20465;-65
2023/05/15 09:25:34;;;;;;;17.67;16.87;;;19.70;99.90;;;;;;5078508;28;20463;-66
2023/05/15 09:28:01;;;;;;;21.23;19.60;;;20.40;99.90;;;;;;5086728;28;20497;-66
2023/05/15 09:30:30;;;;;;;16.80;16.03;;;21.10;99.90;;;;;;5083942;28;20459;-66
2023/05/15 09:32:58;;;;;;;17.50;16.70;;;21.20;99.90;;;;;;5080728;28;20964;-67
2023/05/15 09:35:32;;;;;;;19.47;18.33;;;21.40;99.90;;;;;;5094736;28;20446;-67
2023/05/15 09:38:01;;;;;;;17.13;16.33;;;21.10;99.90;;;;;;5088580;28;20466;-66
2023/05/15 09:40:33;;;;;;;18.13;17.20;;;21.20;99.90;;;;;;5085248;28;20466;-67
2023/05/15 09:43:00;;;;;;;19.53;18.37;;;21.50;99.90;;;;;;5081673;28;20805;-66
2023/05/15 09:45:28;;;;;;;19.37;18.07;;;21.90;99.90;;;;;;5081110;28;20479;-66
2023/05/15 09:47:55;;;;;;;18.53;17.43;;;21.50;99.90;;;;;;5094780;28;20870;-66
2023/05/15 09:50:25;;;;;;;23.80;21.87;;;21.70;99.90;;;;;;5099743;27;20472;-67
2023/05/15 09:52:52;;;;;;;19.20;18.00;;;22.00;99.90;;;;;;5108875;28;20461;-66
2023/05/15 09:55:22;;;;;;;22.43;20.73;;;21.90;99.90;;;;;;5105400;28;20472;-66
2023/05/15 09:58:06;;;;;;;23.80;22.20;;;21.90;99.90;;;;;;5102568;27;20457;-66
2023/05/15 10:00:33;;;;;;;25.97;23.47;;;21.70;99.90;;;;;;5090464;28;20568;-66
2023/05/15 10:03:02;;;;;;;17.43;16.53;;;21.30;99.90;;;;;;5101912;27;20461;-67
2023/05/15 10:05:29;;;;;;;18.90;17.80;;;21.40;99.90;;;;;;5102707;28;20592;-67
2023/05/15 10:07:57;;;;;;;17.87;16.63;;;21.40;99.90;;;;;;5105373;28;20568;-65
2023/05/15 10:10:26;;;;;;;17.53;16.60;;;21.60;99.90;;;;;;5106153;28;20461;-67
2023/05/15 10:12:54;;;;;;;17.80;16.50;;;22.10;99.90;;;;;;5100358;27;20521;-67
2023/05/15 10:15:23;;;;;;;20.27;18.83;;;22.80;99.90;;;;;;5104063;27;20457;-66
2023/05/15 10:17:50;;;;;;;16.10;15.40;;;22.90;99.90;;;;;;5102208;27;20493;-66
2023/05/15 10:20:18;;;;;;;20.03;18.70;;;23.40;99.90;;;;;;5097985;28;20487;-67
2023/05/15 10:22:47;;;;;;;21.07;19.53;;;23.70;99.90;;;;;;5105917;28;20450;-66
2023/05/15 10:25:21;;;;;;;20.10;19.03;;;23.60;99.90;;;;;;5092172;28;20472;-66
2023/05/15 10:27:51;;;;;;;19.90;18.23;;;23.70;99.90;;;;;;5099669;27;20597;-67
2023/05/15 10:30:19;;;;;;;20.10;18.67;;;23.40;99.90;;;;;;5097766;27;20533;-66
2023/05/15 10:32:46;;;;;;;18.50;17.53;;;23.50;99.90;;;;;;5107579;28;20457;-67
2023/05/15 10:35:14;;;;;;;18.00;16.43;;;23.50;99.90;;;;;;5107113;28;20453;-67
2023/05/15 10:37:41;;;;;;;16.07;15.37;;;23.60;99.40;;;;;;5103909;28;20461;-65
2023/05/15 10:40:10;;;;;;;19.10;18.00;;;23.40;99.90;;;;;;5092235;28;20506;-67
2023/05/15 10:42:38;;;;;;;23.70;21.10;;;23.30;99.90;;;;;;5101819;27;20831;-65
2023/05/15 10:45:09;;;;;;;21.30;19.80;;;22.90;99.90;;;;;;5106992;28;20472;-66
2023/05/15 10:47:38;;;;;;;17.80;16.90;;;22.80;99.90;;;;;;5101635;28;20493;-66
2023/05/15 10:50:06;;;;;;;17.50;16.57;;;22.70;99.90;;;;;;5101189;28;20467;-67
2023/05/15 10:52:33;;;;;;;17.60;16.57;;;22.80;99.90;;;;;;5100943;28;20862;-68
2023/05/15 10:55:00;;;;;;;18.97;17.50;;;23.50;99.90;;;;;;5099359;27;20469;-65
2023/05/15 10:57:29;;;;;;;26.87;23.47;;;24.10;99.90;;;;;;5097297;27;20460;-67
2023/05/15 10:59:56;;;;;;;19.50;18.30;;;24.00;99.90;;;;;;5103745;27;20492;-66
2023/05/15 11:02:28;;;;;;;21.33;19.63;;;24.30;99.90;;;;;;5104450;28;20453;-66
2023/05/15 11:04:56;;;;;;;20.50;18.93;;;24.40;99.90;;;;;;5102200;27;20553;-66
2023/05/15 11:07:24;;;;;;;19.30;18.30;;;24.20;99.90;;;;;;5104394;28;20826;-67
2023/05/15 11:09:52;;;;;;;18.90;17.70;;;24.00;99.50;;;;;;5100168;27;20465;-67
2023/05/15 11:12:19;;;;;;;17.50;16.67;;;24.20;96.90;;;;;;5105107;28;20992;-66
2023/05/15 11:15:20;;;;;;;17.10;16.30;;;24.40;94.00;;;;;;5097951;28;20468;-66
2023/05/15 11:21:04;;;;;;;18.43;17.43;;;24.10;91.40;;;;;;5080012;27;20540;-67
2023/05/15 11:23:38;;;;;;;21.00;19.40;;;24.10;92.10;;;;;;5053808;28;20459;-66
2023/05/15 11:26:05;;;;;;;19.83;18.10;;;23.90;92.00;;;;;;5057680;28;20466;-67
2023/05/15 11:28:41;;;;;;;17.87;16.67;;;23.60;93.20;;;;;;5059891;28;20572;-67
2023/05/15 11:31:08;;;;;;;20.80;19.20;;;23.70;90.40;;;;;;5050639;28;20826;-68
2023/05/15 11:33:39;;;;;;;20.43;18.70;;;23.80;90.70;;;;;;5056334;28;20587;-67
2023/05/15 11:36:07;;;;;;;17.63;16.63;;;23.80;90.00;;;;;;5054658;28;20824;-68
2023/05/15 11:38:38;;;;;;;18.70;17.40;;;24.20;88.70;;;;;;5044824;28;20452;-68
2023/05/15 11:41:18;;;;;;;20.73;18.87;;;23.80;89.10;;;;;;5052793;28;20894;-67
2023/05/15 11:43:46;;;;;;;18.47;17.27;;;23.00;86.70;;;;;;5048697;28;20539;-67
2023/05/15 11:46:13;;;;;;;21.47;19.97;;;22.70;89.40;;;;;;5056255;28;20495;-67
2023/05/15 11:48:41;;;;;;;16.47;15.70;;;22.70;92.20;;;;;;5057027;28;20463;-68
2023/05/15 11:51:18;;;;;;;19.03;17.97;;;23.10;92.30;;;;;;5061209;28;20516;-68
2023/05/15 11:53:46;;;;;;;16.77;15.93;;;23.80;90.10;;;;;;5062018;28;20463;-67
2023/05/15 11:56:21;;;;;;;17.07;16.17;;;24.00;89.00;;;;;;5048895;28;20895;-67
2023/05/15 11:58:49;;;;;;;16.63;15.87;;;24.00;88.30;;;;;;5050604;28;20937;-68
2023/05/15 12:01:16;;;;;;;18.27;17.17;;;23.70;86.70;;;;;;5061251;28;20509;-68
2023/05/15 12:03:43;;;;;;;18.77;17.60;;;23.80;91.70;;;;;;5047066;28;20879;-68
2023/05/15 12:06:11;;;;;;;15.57;14.77;;;23.60;89.10;;;;;;5059012;28;20475;-68
2023/05/15 12:08:40;;;;;;;18.60;17.70;;;24.10;88.60;;;;;;5048936;28;20463;-68
2023/05/15 12:11:08;;;;;;;19.00;17.80;;;24.60;89.50;;;;;;5056471;28;20469;-69
2023/05/15 12:13:35;;;;;;;17.80;16.70;;;25.10;87.10;;;;;;5053887;28;20495;-68
2023/05/15 12:16:03;;;;;;;23.10;21.50;;;24.80;87.50;;;;;;5052528;28;21014;-69
2023/05/15 12:18:30;;;;;;;16.27;15.47;;;24.40;88.70;;;;;;5052994;28;20478;-68
2023/05/15 12:20:58;;;;;;;20.60;19.20;;;24.40;89.10;;;;;;5052280;28;20917;-68
2023/05/15 12:23:27;;;;;;;19.20;17.83;;;24.40;90.70;;;;;;5049676;28;20537;-68
2023/05/15 12:25:58;;;;;;;21.07;19.37;;;24.30;89.20;;;;;;5056009;28;20547;-67
2023/05/15 12:28:25;;;;;;;20.37;18.67;;;24.50;90.20;;;;;;5049896;28;20543;-68
2023/05/15 12:30:53;;;;;;;19.43;18.20;;;24.20;91.50;;;;;;5048970;28;20463;-68
2023/05/15 12:33:19;;;;;;;20.00;18.63;;;24.30;90.80;;;;;;5037968;28;20522;-68
2023/05/15 12:35:53;;;;;;;18.43;17.33;;;24.50;88.70;;;;;;5035777;28;20990;-69
2023/05/15 12:38:21;;;;;;;21.30;19.77;;;24.90;87.10;;;;;;5037845;28;20851;-67
2023/05/15 12:40:52;;;;;;;17.70;16.80;;;24.60;92.30;;;;;;5041389;28;20911;-68
2023/05/15 12:43:19;;;;;;;19.47;17.80;;;24.90;89.60;;;;;;5045653;28;20876;-67
2023/05/15 12:45:46;;;;;;;18.27;17.10;;;24.90;90.90;;;;;;5042239;28;20468;-68